sensor_id;sensor_type;location;lat;lon;timestamp;temperature;humidity
24802;DHT22;12898;50.520;12.152;2023-07-31T00:00:31;13.40;99.90
24802;DHT22;12898;50.520;12.152;2023-07-31T00:02:57;13.40;99.90
24802;DHT22;12898;50.520;12.152;2023-07-31T00:05:23;13.50;99.90
24802;DHT22;12898;50.520;12.152;2023-07-31T00:07:48;13.50;99.90
24802;DHT22;12898;50.520;12.152;2023-07-31T00:10:14;13.50;99.90
24802;DHT22;12898;50.520;12.152;2023-07-31T00:12:41;13.50;99.90
24802;DHT22;12898;50.520;12.152;2023-07-31T00:15:08;13.50;99.90
24802;DHT22;12898;50.520;12.152;2023-07-31T00:17:34;13.50;99.90
24802;DHT22;12898;50.520;12.152;2023-07-31T00:20:00;13.60;99.90
24802;DHT22;12898;50.520;12.152;2023-07-31T00:22:26;13.60;99.90
24802;DHT22;12898;50.520;12.152;2023-07-31T00:24:51;13.60;99.90
24802;DHT22;12898;50.520;12.152;2023-07-31T00:27:17;13.60;99.90
24802;DHT22;12898;50.520;12.152;2023-07-31T00:29:43;13.60;99.90
24802;DHT22;12898;50.520;12.152;2023-07-31T00:32:08;13.60;99.90
24802;DHT22;12898;50.520;12.152;2023-07-31T00:34:34;13.60;99.90
24802;DHT22;12898;50.520;12.152;2023-07-31T00:37:00;13.60;99.90
24802;DHT22;12898;50.520;12.152;2023-07-31T00:39:25;13.60;99.90
24802;DHT22;12898;50.520;12.152;2023-07-31T00:41:51;13.60;99.90
24802;DHT22;12898;50.520;12.152;2023-07-31T00:44:17;13.60;99.90
24802;DHT22;12898;50.520;12.152;2023-07-31T00:46:42;13.70;99.90
24802;DHT22;12898;50.520;12.152;2023-07-31T00:49:08;13.70;99.90
24802;DHT22;12898;50.520;12.152;2023-07-31T00:51:34;13.80;99.90
24802;DHT22;12898;50.520;12.152;2023-07-31T00:54:00;13.80;99.90
24802;DHT22;12898;50.520;12.152;2023-07-31T00:56:27;13.80;99.90
24802;DHT22;12898;50.520;12.152;2023-07-31T00:58:54;13.80;99.90
24802;DHT22;12898;50.520;12.152;2023-07-31T01:01:20;13.80;99.90
24802;DHT22;12898;50.520;12.152;2023-07-31T01:03:47;13.90;99.90
24802;DHT22;12898;50.520;12.152;2023-07-31T01:06:51;13.90;99.90
24802;DHT22;12898;50.520;12.152;2023-07-31T01:09:55;13.90;99.90
24802;DHT22;12898;50.520;12.152;2023-07-31T01:12:38;14.00;99.90
24802;DHT22;12898;50.520;12.152;2023-07-31T01:15:08;14.00;99.90
24802;DHT22;12898;50.520;12.152;2023-07-31T01:17:38;14.00;99.90
24802;DHT22;12898;50.520;12.152;2023-07-31T01:20:08;14.00;99.90
24802;DHT22;12898;50.520;12.152;2023-07-31T01:23:08;14.00;99.90
24802;DHT22;12898;50.520;12.152;2023-07-31T01:26:12;14.00;99.90
24802;DHT22;12898;50.520;12.152;2023-07-31T01:28:55;13.90;99.90
24802;DHT22;12898;50.520;12.152;2023-07-31T01:31:30;13.90;99.90
24802;DHT22;12898;50.520;12.152;2023-07-31T01:34:00;13.80;99.90
24802;DHT22;12898;50.520;12.152;2023-07-31T01:36:27;13.80;99.90
24802;DHT22;12898;50.520;12.152;2023-07-31T01:39:00;13.80;99.90
24802;DHT22;12898;50.520;12.152;2023-07-31T01:41:27;13.80;99.90
24802;DHT22;12898;50.520;12.152;2023-07-31T01:43:53;13.70;99.90
24802;DHT22;12898;50.520;12.152;2023-07-31T01:46:19;13.70;99.90
24802;DHT22;12898;50.520;12.152;2023-07-31T01:48:44;13.70;99.90
24802;DHT22;12898;50.520;12.152;2023-07-31T01:51:10;13.70;99.90
24802;DHT22;12898;50.520;12.152;2023-07-31T01:53:36;13.60;99.90
24802;DHT22;12898;50.520;12.152;2023-07-31T01:56:01;13.60;99.90
24802;DHT22;12898;50.520;12.152;2023-07-31T01:58:27;13.60;99.90
24802;DHT22;12898;50.520;12.152;2023-07-31T02:00:53;13.60;99.90
24802;DHT22;12898;50.520;12.152;2023-07-31T02:03:18;13.60;99.90
24802;DHT22;12898;50.520;12.152;2023-07-31T02:05:48;13.60;99.90
24802;DHT22;12898;50.520;12.152;2023-07-31T02:08:14;13.60;99.90
24802;DHT22;12898;50.520;12.152;2023-07-31T02:10:40;13.60;99.90
24802;DHT22;12898;50.520;12.152;2023-07-31T02:13:06;13.60;99.90
24802;DHT22;12898;50.520;12.152;2023-07-31T02:15:33;13.60;99.90
24802;DHT22;12898;50.520;12.152;2023-07-31T02:17:59;13.60;99.90
24802;DHT22;12898;50.520;12.152;2023-07-31T02:20:25;13.50;99.90
24802;DHT22;12898;50.520;12.152;2023-07-31T02:22:51;13.50;99.90
24802;DHT22;12898;50.520;12.152;2023-07-31T02:25:16;13.50;99.90
24802;DHT22;12898;50.520;12.152;2023-07-31T02:27:42;13.50;99.90
24802;DHT22;12898;50.520;12.152;2023-07-31T02:30:08;13.50;99.90
24802;DHT22;12898;50.520;12.152;2023-07-31T02:32:34;13.50;99.90
24802;DHT22;12898;50.520;12.152;2023-07-31T02:35:00;13.50;99.90
24802;DHT22;12898;50.520;12.152;2023-07-31T02:37:26;13.50;99.90
24802;DHT22;12898;50.520;12.152;2023-07-31T02:39:53;13.50;99.90
24802;DHT22;12898;50.520;12.152;2023-07-31T02:42:19;13.50;99.90
24802;DHT22;12898;50.520;12.152;2023-07-31T02:44:45;13.50;99.90
24802;DHT22;12898;50.520;12.152;2023-07-31T02:47:10;13.50;99.90
24802;DHT22;12898;50.520;12.152;2023-07-31T02:49:36;13.40;99.90
24802;DHT22;12898;50.520;12.152;2023-07-31T02:52:02;13.40;99.90
24802;DHT22;12898;50.520;12.152;2023-07-31T02:54:28;13.40;99.90
24802;DHT22;12898;50.520;12.152;2023-07-31T02:56:54;13.50;99.90
24802;DHT22;12898;50.520;12.152;2023-07-31T02:59:20;13.50;99.90
24802;DHT22;12898;50.520;12.152;2023-07-31T03:01:45;13.50;99.90
24802;DHT22;12898;50.520;12.152;2023-07-31T03:04:11;13.50;99.90
24802;DHT22;12898;50.520;12.152;2023-07-31T03:06:37;13.50;99.90
24802;DHT22;12898;50.520;12.152;2023-07-31T03:09:02;13.50;99.90
24802;DHT22;12898;50.520;12.152;2023-07-31T03:11:28;13.50;99.90
24802;DHT22;12898;50.520;12.152;2023-07-31T03:13:54;13.50;99.90
24802;DHT22;12898;50.520;12.152;2023-07-31T03:16:19;13.50;99.90
24802;DHT22;12898;50.520;12.152;2023-07-31T03:18:45;13.60;99.90
24802;DHT22;12898;50.520;12.152;2023-07-31T03:21:11;13.60;99.90
24802;DHT22;12898;50.520;12.152;2023-07-31T03:23:37;13.60;99.90
24802;DHT22;12898;50.520;12.152;2023-07-31T03:26:08;13.60;99.90
24802;DHT22;12898;50.520;12.152;2023-07-31T03:28:33;13.60;99.90
24802;DHT22;12898;50.520;12.152;2023-07-31T03:30:59;13.60;99.90
24802;DHT22;12898;50.520;12.152;2023-07-31T03:33:25;13.60;99.90
24802;DHT22;12898;50.520;12.152;2023-07-31T03:35:51;13.60;99.90
24802;DHT22;12898;50.520;12.152;2023-07-31T03:38:17;13.70;99.90
24802;DHT22;12898;50.520;12.152;2023-07-31T03:40:43;13.70;99.90
24802;DHT22;12898;50.520;12.152;2023-07-31T03:43:10;13.70;99.90
24802;DHT22;12898;50.520;12.152;2023-07-31T03:45:36;13.70;99.90
24802;DHT22;12898;50.520;12.152;2023-07-31T03:48:03;13.70;99.90
24802;DHT22;12898;50.520;12.152;2023-07-31T03:50:29;13.70;99.90
24802;DHT22;12898;50.520;12.152;2023-07-31T03:52:55;13.70;99.90
24802;DHT22;12898;50.520;12.152;2023-07-31T03:55:20;13.80;99.90
24802;DHT22;12898;50.520;12.152;2023-07-31T03:57:47;13.70;99.90
24802;DHT22;12898;50.520;12.152;2023-07-31T04:00:13;13.70;99.90
24802;DHT22;12898;50.520;12.152;2023-07-31T04:02:39;13.70;99.90
24802;DHT22;12898;50.520;12.152;2023-07-31T04:05:04;13.70;99.90
24802;DHT22;12898;50.520;12.152;2023-07-31T04:07:30;13.80;99.90
24802;DHT22;12898;50.520;12.152;2023-07-31T04:09:57;13.80;99.90
24802;DHT22;12898;50.520;12.152;2023-07-31T04:12:22;13.80;99.90
24802;DHT22;12898;50.520;12.152;2023-07-31T04:14:48;13.90;99.90
24802;DHT22;12898;50.520;12.152;2023-07-31T04:17:14;13.90;99.90
24802;DHT22;12898;50.520;12.152;2023-07-31T04:19:39;13.90;99.90
24802;DHT22;12898;50.520;12.152;2023-07-31T04:22:05;13.90;99.90
24802;DHT22;12898;50.520;12.152;2023-07-31T04:24:31;13.90;99.90
24802;DHT22;12898;50.520;12.152;2023-07-31T04:26:56;14.00;99.90
24802;DHT22;12898;50.520;12.152;2023-07-31T04:29:22;14.00;99.90
24802;DHT22;12898;50.520;12.152;2023-07-31T04:31:49;14.00;99.90
24802;DHT22;12898;50.520;12.152;2023-07-31T04:34:15;14.00;99.90
24802;DHT22;12898;50.520;12.152;2023-07-31T04:36:40;14.10;99.90
24802;DHT22;12898;50.520;12.152;2023-07-31T04:39:06;14.10;99.90
24802;DHT22;12898;50.520;12.152;2023-07-31T04:41:32;14.10;99.90
24802;DHT22;12898;50.520;12.152;2023-07-31T04:43:58;14.10;99.90
24802;DHT22;12898;50.520;12.152;2023-07-31T04:46:23;14.20;99.90
24802;DHT22;12898;50.520;12.152;2023-07-31T04:48:49;14.20;99.90
24802;DHT22;12898;50.520;12.152;2023-07-31T04:51:15;14.20;99.90
24802;DHT22;12898;50.520;12.152;2023-07-31T04:53:41;14.20;99.90
24802;DHT22;12898;50.520;12.152;2023-07-31T04:56:06;14.10;99.90
24802;DHT22;12898;50.520;12.152;2023-07-31T04:58:32;14.10;99.90
24802;DHT22;12898;50.520;12.152;2023-07-31T05:00:58;14.10;99.90
24802;DHT22;12898;50.520;12.152;2023-07-31T05:03:23;14.20;99.90
24802;DHT22;12898;50.520;12.152;2023-07-31T05:05:50;14.20;99.90
24802;DHT22;12898;50.520;12.152;2023-07-31T05:08:16;14.20;99.90
24802;DHT22;12898;50.520;12.152;2023-07-31T05:10:43;14.20;99.90
24802;DHT22;12898;50.520;12.152;2023-07-31T05:13:09;14.20;99.90
24802;DHT22;12898;50.520;12.152;2023-07-31T05:15:34;14.20;99.90
24802;DHT22;12898;50.520;12.152;2023-07-31T05:18:00;14.20;99.90
24802;DHT22;12898;50.520;12.152;2023-07-31T05:20:26;14.30;99.90
24802;DHT22;12898;50.520;12.152;2023-07-31T05:22:52;14.30;99.90
24802;DHT22;12898;50.520;12.152;2023-07-31T05:25:18;14.30;99.90
24802;DHT22;12898;50.520;12.152;2023-07-31T05:27:44;14.30;99.90
24802;DHT22;12898;50.520;12.152;2023-07-31T05:30:09;14.40;99.90
24802;DHT22;12898;50.520;12.152;2023-07-31T05:32:35;14.40;99.90
24802;DHT22;12898;50.520;12.152;2023-07-31T05:35:01;14.40;99.90
24802;DHT22;12898;50.520;12.152;2023-07-31T05:37:26;14.40;99.90
24802;DHT22;12898;50.520;12.152;2023-07-31T05:39:52;14.40;99.90
24802;DHT22;12898;50.520;12.152;2023-07-31T05:42:18;14.40;99.90
24802;DHT22;12898;50.520;12.152;2023-07-31T05:44:43;14.50;99.90
24802;DHT22;12898;50.520;12.152;2023-07-31T05:47:09;14.40;99.90
24802;DHT22;12898;50.520;12.152;2023-07-31T05:49:35;14.50;99.90
24802;DHT22;12898;50.520;12.152;2023-07-31T05:52:01;14.50;99.90
24802;DHT22;12898;50.520;12.152;2023-07-31T05:54:26;14.50;99.90
24802;DHT22;12898;50.520;12.152;2023-07-31T05:56:52;14.50;99.90
24802;DHT22;12898;50.520;12.152;2023-07-31T05:59:18;14.50;99.90
24802;DHT22;12898;50.520;12.152;2023-07-31T06:01:43;14.60;99.90
24802;DHT22;12898;50.520;12.152;2023-07-31T06:04:09;14.60;99.90
24802;DHT22;12898;50.520;12.152;2023-07-31T06:06:35;14.60;99.90
24802;DHT22;12898;50.520;12.152;2023-07-31T06:09:00;14.70;99.90
24802;DHT22;12898;50.520;12.152;2023-07-31T06:11:26;14.70;99.90
24802;DHT22;12898;50.520;12.152;2023-07-31T06:13:52;14.80;99.90
24802;DHT22;12898;50.520;12.152;2023-07-31T06:16:17;14.80;99.90
24802;DHT22;12898;50.520;12.152;2023-07-31T06:18:43;14.80;99.90
24802;DHT22;12898;50.520;12.152;2023-07-31T06:21:09;14.90;99.90
24802;DHT22;12898;50.520;12.152;2023-07-31T06:23:35;14.90;99.90
24802;DHT22;12898;50.520;12.152;2023-07-31T06:26:01;15.00;99.90
24802;DHT22;12898;50.520;12.152;2023-07-31T06:28:31;15.00;99.90
24802;DHT22;12898;50.520;12.152;2023-07-31T06:31:00;15.00;99.90
24802;DHT22;12898;50.520;12.152;2023-07-31T06:33:27;15.10;99.90
24802;DHT22;12898;50.520;12.152;2023-07-31T06:35:53;15.10;99.90
24802;DHT22;12898;50.520;12.152;2023-07-31T06:38:22;15.10;99.90
24802;DHT22;12898;50.520;12.152;2023-07-31T06:40:49;15.20;99.90
24802;DHT22;12898;50.520;12.152;2023-07-31T06:43:15;15.20;99.90
24802;DHT22;12898;50.520;12.152;2023-07-31T06:45:40;15.20;99.90
24802;DHT22;12898;50.520;12.152;2023-07-31T06:48:06;15.20;99.90
24802;DHT22;12898;50.520;12.152;2023-07-31T06:50:32;15.20;99.90
24802;DHT22;12898;50.520;12.152;2023-07-31T06:52:58;15.30;99.90
24802;DHT22;12898;50.520;12.152;2023-07-31T06:55:24;15.30;99.90
24802;DHT22;12898;50.520;12.152;2023-07-31T06:57:53;15.40;99.90
24802;DHT22;12898;50.520;12.152;2023-07-31T07:00:20;15.40;99.90
24802;DHT22;12898;50.520;12.152;2023-07-31T07:02:47;15.50;99.90
24802;DHT22;12898;50.520;12.152;2023-07-31T07:05:13;15.60;99.90
24802;DHT22;12898;50.520;12.152;2023-07-31T07:07:39;15.70;99.90
24802;DHT22;12898;50.520;12.152;2023-07-31T07:10:05;15.70;99.90
24802;DHT22;12898;50.520;12.152;2023-07-31T07:12:32;15.70;99.90
24802;DHT22;12898;50.520;12.152;2023-07-31T07:14:58;15.80;99.90
24802;DHT22;12898;50.520;12.152;2023-07-31T07:17:28;15.90;99.90
24802;DHT22;12898;50.520;12.152;2023-07-31T07:19:58;15.90;99.90
24802;DHT22;12898;50.520;12.152;2023-07-31T07:22:24;16.00;99.90
24802;DHT22;12898;50.520;12.152;2023-07-31T07:24:51;16.00;99.90
24802;DHT22;12898;50.520;12.152;2023-07-31T07:27:16;16.10;99.90
24802;DHT22;12898;50.520;12.152;2023-07-31T07:29:42;16.10;99.90
24802;DHT22;12898;50.520;12.152;2023-07-31T07:32:08;16.10;99.90
24802;DHT22;12898;50.520;12.152;2023-07-31T07:34:33;16.30;99.90
24802;DHT22;12898;50.520;12.152;2023-07-31T07:36:59;16.30;99.90
24802;DHT22;12898;50.520;12.152;2023-07-31T07:39:25;16.40;99.90
24802;DHT22;12898;50.520;12.152;2023-07-31T07:41:50;16.40;99.90
24802;DHT22;12898;50.520;12.152;2023-07-31T07:44:18;16.50;99.90
24802;DHT22;12898;50.520;12.152;2023-07-31T07:46:44;16.50;99.90
24802;DHT22;12898;50.520;12.152;2023-07-31T07:49:09;16.50;99.90
24802;DHT22;12898;50.520;12.152;2023-07-31T07:51:35;16.50;99.90
24802;DHT22;12898;50.520;12.152;2023-07-31T07:54:01;16.50;99.90
24802;DHT22;12898;50.520;12.152;2023-07-31T07:56:27;16.50;99.90
24802;DHT22;12898;50.520;12.152;2023-07-31T07:58:53;16.40;99.90
24802;DHT22;12898;50.520;12.152;2023-07-31T08:01:19;16.40;99.90
24802;DHT22;12898;50.520;12.152;2023-07-31T08:03:46;16.40;99.90
24802;DHT22;12898;50.520;12.152;2023-07-31T08:06:12;16.50;99.90
24802;DHT22;12898;50.520;12.152;2023-07-31T08:08:38;16.50;99.90
24802;DHT22;12898;50.520;12.152;2023-07-31T08:11:04;16.60;99.90
24802;DHT22;12898;50.520;12.152;2023-07-31T08:13:30;16.60;99.90
24802;DHT22;12898;50.520;12.152;2023-07-31T08:15:55;16.70;99.90
24802;DHT22;12898;50.520;12.152;2023-07-31T08:18:21;16.80;99.90
24802;DHT22;12898;50.520;12.152;2023-07-31T08:20:47;16.90;99.90
24802;DHT22;12898;50.520;12.152;2023-07-31T08:23:13;17.00;99.90
24802;DHT22;12898;50.520;12.152;2023-07-31T08:25:39;17.20;99.90
24802;DHT22;12898;50.520;12.152;2023-07-31T08:28:05;17.20;99.90
24802;DHT22;12898;50.520;12.152;2023-07-31T08:30:32;17.20;99.90
24802;DHT22;12898;50.520;12.152;2023-07-31T08:32:59;17.40;99.90
24802;DHT22;12898;50.520;12.152;2023-07-31T08:35:26;17.40;99.90
24802;DHT22;12898;50.520;12.152;2023-07-31T08:37:53;17.30;99.90
24802;DHT22;12898;50.520;12.152;2023-07-31T08:40:19;17.40;99.90
24802;DHT22;12898;50.520;12.152;2023-07-31T08:42:46;17.50;99.90
24802;DHT22;12898;50.520;12.152;2023-07-31T08:45:19;17.50;99.90
24802;DHT22;12898;50.520;12.152;2023-07-31T08:47:46;17.40;99.90
24802;DHT22;12898;50.520;12.152;2023-07-31T08:50:14;17.60;99.90
24802;DHT22;12898;50.520;12.152;2023-07-31T08:52:41;17.70;99.90
24802;DHT22;12898;50.520;12.152;2023-07-31T08:55:07;17.80;99.90
24802;DHT22;12898;50.520;12.152;2023-07-31T08:57:35;18.00;99.90
24802;DHT22;12898;50.520;12.152;2023-07-31T09:00:07;18.10;99.90
24802;DHT22;12898;50.520;12.152;2023-07-31T09:03:01;18.20;99.90
24802;DHT22;12898;50.520;12.152;2023-07-31T09:05:30;18.20;99.90
24802;DHT22;12898;50.520;12.152;2023-07-31T09:07:57;18.10;99.90
24802;DHT22;12898;50.520;12.152;2023-07-31T09:10:23;18.10;99.90
24802;DHT22;12898;50.520;12.152;2023-07-31T09:12:51;18.10;99.90
24802;DHT22;12898;50.520;12.152;2023-07-31T09:15:18;18.10;99.90
24802;DHT22;12898;50.520;12.152;2023-07-31T09:17:44;18.20;99.90
24802;DHT22;12898;50.520;12.152;2023-07-31T09:22:44;18.60;99.90
24802;DHT22;12898;50.520;12.152;2023-07-31T09:25:24;18.60;99.90
24802;DHT22;12898;50.520;12.152;2023-07-31T09:27:53;18.70;99.90
24802;DHT22;12898;50.520;12.152;2023-07-31T09:30:57;18.80;99.90
24802;DHT22;12898;50.520;12.152;2023-07-31T09:33:22;19.00;99.90
24802;DHT22;12898;50.520;12.152;2023-07-31T09:35:48;19.10;99.90
24802;DHT22;12898;50.520;12.152;2023-07-31T09:38:15;19.30;99.90
24802;DHT22;12898;50.520;12.152;2023-07-31T09:40:46;19.40;99.90
24802;DHT22;12898;50.520;12.152;2023-07-31T09:43:17;19.50;99.90
24802;DHT22;12898;50.520;12.152;2023-07-31T09:45:45;19.40;99.90
24802;DHT22;12898;50.520;12.152;2023-07-31T09:48:13;19.30;99.90
24802;DHT22;12898;50.520;12.152;2023-07-31T09:50:48;19.30;99.90
24802;DHT22;12898;50.520;12.152;2023-07-31T09:53:15;19.00;99.90
24802;DHT22;12898;50.520;12.152;2023-07-31T09:55:42;18.90;99.90
24802;DHT22;12898;50.520;12.152;2023-07-31T09:58:12;18.90;99.90
24802;DHT22;12898;50.520;12.152;2023-07-31T10:00:38;19.00;99.90
24802;DHT22;12898;50.520;12.152;2023-07-31T10:03:06;19.20;99.90
24802;DHT22;12898;50.520;12.152;2023-07-31T10:05:46;19.20;99.90
24802;DHT22;12898;50.520;12.152;2023-07-31T10:08:20;19.20;99.90
24802;DHT22;12898;50.520;12.152;2023-07-31T10:10:47;19.50;99.90
24802;DHT22;12898;50.520;12.152;2023-07-31T10:13:13;19.60;99.90
24802;DHT22;12898;50.520;12.152;2023-07-31T10:15:40;19.80;99.90
24802;DHT22;12898;50.520;12.152;2023-07-31T10:18:08;20.10;99.90
24802;DHT22;12898;50.520;12.152;2023-07-31T10:20:34;20.20;99.90
24802;DHT22;12898;50.520;12.152;2023-07-31T10:23:01;20.30;99.90
24802;DHT22;12898;50.520;12.152;2023-07-31T10:25:27;20.50;99.90
24802;DHT22;12898;50.520;12.152;2023-07-31T10:27:54;20.70;99.90
24802;DHT22;12898;50.520;12.152;2023-07-31T10:30:24;20.50;99.90
24802;DHT22;12898;50.520;12.152;2023-07-31T10:32:51;20.40;99.90
24802;DHT22;12898;50.520;12.152;2023-07-31T10:35:18;20.50;99.90
24802;DHT22;12898;50.520;12.152;2023-07-31T10:37:47;20.50;99.90
24802;DHT22;12898;50.520;12.152;2023-07-31T10:40:23;20.50;99.90
24802;DHT22;12898;50.520;12.152;2023-07-31T10:42:54;20.20;99.90
24802;DHT22;12898;50.520;12.152;2023-07-31T10:45:42;20.10;99.90
24802;DHT22;12898;50.520;12.152;2023-07-31T10:48:15;20.00;99.90
24802;DHT22;12898;50.520;12.152;2023-07-31T10:50:54;19.90;99.90
24802;DHT22;12898;50.520;12.152;2023-07-31T10:53:30;20.10;99.90
24802;DHT22;12898;50.520;12.152;2023-07-31T10:56:05;20.20;99.90
24802;DHT22;12898;50.520;12.152;2023-07-31T10:58:36;20.60;99.90
24802;DHT22;12898;50.520;12.152;2023-07-31T11:01:04;20.70;99.90
24802;DHT22;12898;50.520;12.152;2023-07-31T11:03:47;20.80;99.90
24802;DHT22;12898;50.520;12.152;2023-07-31T11:06:16;20.70;99.90
24802;DHT22;12898;50.520;12.152;2023-07-31T11:08:46;20.70;99.90
24802;DHT22;12898;50.520;12.152;2023-07-31T11:11:14;20.60;99.90
24802;DHT22;12898;50.520;12.152;2023-07-31T11:13:53;20.40;99.90
24802;DHT22;12898;50.520;12.152;2023-07-31T11:16:21;20.30;99.90
24802;DHT22;12898;50.520;12.152;2023-07-31T11:18:49;20.20;99.90
24802;DHT22;12898;50.520;12.152;2023-07-31T11:21:18;20.40;99.90
24802;DHT22;12898;50.520;12.152;2023-07-31T11:23:47;20.60;99.90
24802;DHT22;12898;50.520;12.152;2023-07-31T11:26:17;20.70;99.90
24802;DHT22;12898;50.520;12.152;2023-07-31T11:28:46;20.50;99.90
24802;DHT22;12898;50.520;12.152;2023-07-31T11:31:12;20.40;99.90
24802;DHT22;12898;50.520;12.152;2023-07-31T11:33:37;20.30;99.90
24802;DHT22;12898;50.520;12.152;2023-07-31T11:36:03;20.30;99.90
24802;DHT22;12898;50.520;12.152;2023-07-31T11:38:31;20.40;99.90
24802;DHT22;12898;50.520;12.152;2023-07-31T11:41:02;20.50;99.90
24802;DHT22;12898;50.520;12.152;2023-07-31T11:43:32;20.40;99.90
24802;DHT22;12898;50.520;12.152;2023-07-31T11:45:59;20.50;99.90
24802;DHT22;12898;50.520;12.152;2023-07-31T11:48:33;20.80;99.90
24802;DHT22;12898;50.520;12.152;2023-07-31T11:51:02;21.10;99.90
24802;DHT22;12898;50.520;12.152;2023-07-31T11:53:40;21.30;99.90
24802;DHT22;12898;50.520;12.152;2023-07-31T11:56:14;21.30;99.90
24802;DHT22;12898;50.520;12.152;2023-07-31T11:58:43;21.30;99.90
24802;DHT22;12898;50.520;12.152;2023-07-31T12:01:12;21.10;99.90
24802;DHT22;12898;50.520;12.152;2023-07-31T12:03:39;20.80;99.90
24802;DHT22;12898;50.520;12.152;2023-07-31T12:06:07;20.60;99.90
24802;DHT22;12898;50.520;12.152;2023-07-31T12:08:33;20.60;99.90
24802;DHT22;12898;50.520;12.152;2023-07-31T12:11:07;20.60;99.90
24802;DHT22;12898;50.520;12.152;2023-07-31T12:13:36;20.70;99.90
24802;DHT22;12898;50.520;12.152;2023-07-31T12:16:03;20.80;99.90
24802;DHT22;12898;50.520;12.152;2023-07-31T12:18:35;20.90;99.90
24802;DHT22;12898;50.520;12.152;2023-07-31T12:21:04;21.30;99.90
24802;DHT22;12898;50.520;12.152;2023-07-31T12:23:31;21.60;99.90
24802;DHT22;12898;50.520;12.152;2023-07-31T12:26:15;21.70;99.90
24802;DHT22;12898;50.520;12.152;2023-07-31T12:28:42;21.70;99.90
24802;DHT22;12898;50.520;12.152;2023-07-31T12:31:10;21.50;99.90
24802;DHT22;12898;50.520;12.152;2023-07-31T12:33:39;21.20;99.90
24802;DHT22;12898;50.520;12.152;2023-07-31T12:36:11;21.10;99.90
24802;DHT22;12898;50.520;12.152;2023-07-31T12:38:39;20.80;99.90
24802;DHT22;12898;50.520;12.152;2023-07-31T12:41:04;20.80;99.90
24802;DHT22;12898;50.520;12.152;2023-07-31T12:43:32;20.80;99.90
24802;DHT22;12898;50.520;12.152;2023-07-31T12:45:59;20.90;99.90
24802;DHT22;12898;50.520;12.152;2023-07-31T12:48:25;21.00;99.90
24802;DHT22;12898;50.520;12.152;2023-07-31T12:50:50;21.30;99.90
24802;DHT22;12898;50.520;12.152;2023-07-31T12:53:16;21.70;99.90
24802;DHT22;12898;50.520;12.152;2023-07-31T12:55:42;21.90;99.90
24802;DHT22;12898;50.520;12.152;2023-07-31T12:58:08;22.00;99.90
24802;DHT22;12898;50.520;12.152;2023-07-31T13:00:33;21.90;99.90
24802;DHT22;12898;50.520;12.152;2023-07-31T13:03:00;21.90;99.90
24802;DHT22;12898;50.520;12.152;2023-07-31T13:05:29;21.60;99.90
24802;DHT22;12898;50.520;12.152;2023-07-31T13:07:55;21.30;99.90
24802;DHT22;12898;50.520;12.152;2023-07-31T13:10:22;21.20;99.90
24802;DHT22;12898;50.520;12.152;2023-07-31T13:12:48;21.10;99.90
24802;DHT22;12898;50.520;12.152;2023-07-31T13:15:14;20.90;99.90
24802;DHT22;12898;50.520;12.152;2023-07-31T13:17:40;20.70;99.90
24802;DHT22;12898;50.520;12.152;2023-07-31T13:20:07;20.50;99.90
24802;DHT22;12898;50.520;12.152;2023-07-31T13:22:33;20.50;99.90
24802;DHT22;12898;50.520;12.152;2023-07-31T13:24:58;20.40;99.90
24802;DHT22;12898;50.520;12.152;2023-07-31T13:27:24;20.30;99.90
24802;DHT22;12898;50.520;12.152;2023-07-31T13:29:51;20.60;99.90
24802;DHT22;12898;50.520;12.152;2023-07-31T13:32:18;20.70;99.90
24802;DHT22;12898;50.520;12.152;2023-07-31T13:34:45;21.10;99.90
24802;DHT22;12898;50.520;12.152;2023-07-31T13:37:12;21.50;99.90
24802;DHT22;12898;50.520;12.152;2023-07-31T13:39:38;22.00;99.90
24802;DHT22;12898;50.520;12.152;2023-07-31T13:42:05;22.40;99.90
24802;DHT22;12898;50.520;12.152;2023-07-31T13:44:36;22.90;99.90
24802;DHT22;12898;50.520;12.152;2023-07-31T13:47:02;23.20;99.60
24802;DHT22;12898;50.520;12.152;2023-07-31T13:49:28;23.40;99.80
24802;DHT22;12898;50.520;12.152;2023-07-31T13:51:54;23.50;98.20
24802;DHT22;12898;50.520;12.152;2023-07-31T13:54:20;23.50;96.80
24802;DHT22;12898;50.520;12.152;2023-07-31T13:56:46;23.20;96.90
24802;DHT22;12898;50.520;12.152;2023-07-31T13:59:11;23.20;97.50
24802;DHT22;12898;50.520;12.152;2023-07-31T14:01:37;23.30;95.60
24802;DHT22;12898;50.520;12.152;2023-07-31T14:04:03;23.10;95.70
24802;DHT22;12898;50.520;12.152;2023-07-31T14:06:29;22.90;96.90
24802;DHT22;12898;50.520;12.152;2023-07-31T14:08:55;22.60;97.30
24802;DHT22;12898;50.520;12.152;2023-07-31T14:11:21;22.00;97.70
24802;DHT22;12898;50.520;12.152;2023-07-31T14:13:48;21.70;99.20
24802;DHT22;12898;50.520;12.152;2023-07-31T14:16:15;21.50;99.90
24802;DHT22;12898;50.520;12.152;2023-07-31T14:18:41;21.40;99.90
24802;DHT22;12898;50.520;12.152;2023-07-31T14:21:07;21.50;99.90
24802;DHT22;12898;50.520;12.152;2023-07-31T14:23:33;21.60;99.80
24802;DHT22;12898;50.520;12.152;2023-07-31T14:25:59;21.50;99.30
24802;DHT22;12898;50.520;12.152;2023-07-31T14:28:24;21.40;99.90
24802;DHT22;12898;50.520;12.152;2023-07-31T14:30:50;21.40;99.70
24802;DHT22;12898;50.520;12.152;2023-07-31T14:33:16;21.40;99.70
24802;DHT22;12898;50.520;12.152;2023-07-31T14:35:42;21.30;99.30
24802;DHT22;12898;50.520;12.152;2023-07-31T14:38:07;21.30;99.90
24802;DHT22;12898;50.520;12.152;2023-07-31T14:40:33;21.30;98.70
24802;DHT22;12898;50.520;12.152;2023-07-31T14:42:59;21.40;99.90
24802;DHT22;12898;50.520;12.152;2023-07-31T14:45:24;21.60;99.90
24802;DHT22;12898;50.520;12.152;2023-07-31T14:47:50;21.80;98.80
24802;DHT22;12898;50.520;12.152;2023-07-31T14:50:16;22.00;97.90
24802;DHT22;12898;50.520;12.152;2023-07-31T14:52:42;22.20;99.00
24802;DHT22;12898;50.520;12.152;2023-07-31T14:55:07;22.20;98.50
24802;DHT22;12898;50.520;12.152;2023-07-31T14:57:34;22.10;97.40
24802;DHT22;12898;50.520;12.152;2023-07-31T15:00:00;21.90;97.30
24802;DHT22;12898;50.520;12.152;2023-07-31T15:02:26;21.70;98.90
24802;DHT22;12898;50.520;12.152;2023-07-31T15:04:52;21.50;99.00
24802;DHT22;12898;50.520;12.152;2023-07-31T15:07:18;21.40;99.70
24802;DHT22;12898;50.520;12.152;2023-07-31T15:09:44;21.30;99.30
24802;DHT22;12898;50.520;12.152;2023-07-31T15:12:10;21.30;99.90
24802;DHT22;12898;50.520;12.152;2023-07-31T15:14:35;21.40;99.90
24802;DHT22;12898;50.520;12.152;2023-07-31T15:17:01;21.60;99.90
24802;DHT22;12898;50.520;12.152;2023-07-31T15:19:27;21.70;99.10